Time;durP1;ratioP1;P1;durP2;ratioP2;P2;SDS_P1;SDS_P2;PMS_P1;PMS_P2;Temp;Humidity;BMP_temperature;BMP_pressure;BME280_temperature;BME280_humidity;BME280_pressure;Samples;Min_cycle;Max_cycle;Signal;HPM_P1;HPM_P2
2021/08/27 00:00:14;;;;;;;4.5;3.1;;;;;;;;;;;;;
2021/08/27 00:02:39;;;;;;;4.9;3.6;;;;;;;;;;;;;
2021/08/27 00:05:04;;;;;;;3.3;3;;;;;;;;;;;;;
2021/08/27 00:07:29;;;;;;;4.1;3.2;;;;;;;;;;;;;
2021/08/27 00:09:54;;;;;;;4.1;3;;;;;;;;;;;;;
2021/08/27 00:12:20;;;;;;;5.6;3.6;;;;;;;;;;;;;
2021/08/27 00:14:45;;;;;;;4.5;3.5;;;;;;;;;;;;;
2021/08/27 00:17:12;;;;;;;5.6;3.5;;;;;;;;;;;;;
2021/08/27 00:19:35;;;;;;;5.2;3.8;;;;;;;;;;;;;
2021/08/27 00:22:00;;;;;;;5.4;3.5;;;;;;;;;;;;;
2021/08/27 00:24:25;;;;;;;4.6;3.6;;;;;;;;;;;;;
2021/08/27 00:26:50;;;;;;;5.2;3.4;;;;;;;;;;;;;
2021/08/27 00:29:15;;;;;;;4.7;3.5;;;;;;;;;;;;;
2021/08/27 00:31:40;;;;;;;5;3.6;;;;;;;;;;;;;
2021/08/27 00:34:06;;;;;;;5.2;3.7;;;;;;;;;;;;;
2021/08/27 00:36:31;;;;;;;6.1;3.5;;;;;;;;;;;;;
2021/08/27 00:38:56;;;;;;;4.4;3.4;;;;;;;;;;;;;
2021/08/27 00:41:21;;;;;;;5.8;3.7;;;;;;;;;;;;;
2021/08/27 00:43:46;;;;;;;4.4;3.6;;;;;;;;;;;;;
2021/08/27 00:46:12;;;;;;;5.6;3.8;;;;;;;;;;;;;
2021/08/27 00:48:37;;;;;;;4.6;3.3;;;;;;;;;;;;;
2021/08/27 00:51:02;;;;;;;4.2;3.2;;;;;;;;;;;;;
2021/08/27 00:53:27;;;;;;;3.6;3.2;;;;;;;;;;;;;
2021/08/27 00:55:52;;;;;;;5.6;3.6;;;;;;;;;;;;;
2021/08/27 00:58:17;;;;;;;4.3;3.2;;;;;;;;;;;;;
2021/08/27 01:00:42;;;;;;;4.7;3.6;;;;;;;;;;;;;
2021/08/27 01:03:08;;;;;;;4.6;3.3;;;;;;;;;;;;;
2021/08/27 01:05:33;;;;;;;4.2;3.4;;;;;;;;;;;;;
2021/08/27 01:07:58;;;;;;;5.2;3.6;;;;;;;;;;;;;
2021/08/27 01:10:23;;;;;;;3.8;3.1;;;;;;;;;;;;;
2021/08/27 01:12:48;;;;;;;4.3;3.6;;;;;;;;;;;;;
2021/08/27 01:15:13;;;;;;;5.5;3.7;;;;;;;;;;;;;
2021/08/27 01:17:38;;;;;;;3.9;3.1;;;;;;;;;;;;;
2021/08/27 01:20:05;;;;;;;4.1;3.2;;;;;;;;;;;;;
2021/08/27 01:22:29;;;;;;;5.6;3.8;;;;;;;;;;;;;
2021/08/27 01:24:54;;;;;;;4.8;3.6;;;;;;;;;;;;;
2021/08/27 01:27:19;;;;;;;4.9;3.5;;;;;;;;;;;;;
2021/08/27 01:29:44;;;;;;;4.6;3.6;;;;;;;;;;;;;
2021/08/27 01:32:10;;;;;;;4.6;3.4;;;;;;;;;;;;;
2021/08/27 01:34:35;;;;;;;4.6;3.5;;;;;;;;;;;;;
2021/08/27 01:37:00;;;;;;;4.4;3.4;;;;;;;;;;;;;
2021/08/27 01:39:25;;;;;;;4.7;3.9;;;;;;;;;;;;;
2021/08/27 01:41:50;;;;;;;4.9;3.6;;;;;;;;;;;;;
2021/08/27 01:44:15;;;;;;;5;3.7;;;;;;;;;;;;;
2021/08/27 01:46:40;;;;;;;4.5;3.3;;;;;;;;;;;;;
2021/08/27 01:49:05;;;;;;;4.4;3.3;;;;;;;;;;;;;
2021/08/27 01:51:31;;;;;;;4.6;3.8;;;;;;;;;;;;;
2021/08/27 01:53:56;;;;;;;4.7;3.5;;;;;;;;;;;;;
2021/08/27 01:56:21;;;;;;;5;3.9;;;;;;;;;;;;;
2021/08/27 01:58:46;;;;;;;5;3.6;;;;;;;;;;;;;
2021/08/27 02:01:11;;;;;;;4.2;3.4;;;;;;;;;;;;;
2021/08/27 02:03:36;;;;;;;4;3.1;;;;;;;;;;;;;
2021/08/27 02:06:02;;;;;;;4.8;3.4;;;;;;;;;;;;;
2021/08/27 02:08:27;;;;;;;4.4;3;;;;;;;;;;;;;
2021/08/27 02:10:52;;;;;;;4.7;3.5;;;;;;;;;;;;;
2021/08/27 02:13:17;;;;;;;5.7;3.3;;;;;;;;;;;;;
2021/08/27 02:15:42;;;;;;;3.5;3;;;;;;;;;;;;;
2021/08/27 02:18:07;;;;;;;4.6;3.3;;;;;;;;;;;;;
2021/08/27 02:20:32;;;;;;;6;3.4;;;;;;;;;;;;;
2021/08/27 02:22:57;;;;;;;3.3;2.7;;;;;;;;;;;;;
2021/08/27 02:25:22;;;;;;;4.1;3.1;;;;;;;;;;;;;
2021/08/27 02:27:47;;;;;;;3.8;3;;;;;;;;;;;;;
2021/08/27 02:30:12;;;;;;;4.2;3;;;;;;;;;;;;;
2021/08/27 02:32:38;;;;;;;5.4;3.2;;;;;;;;;;;;;
2021/08/27 02:35:03;;;;;;;3.9;3.2;;;;;;;;;;;;;
2021/08/27 02:37:28;;;;;;;4.8;3.1;;;;;;;;;;;;;
2021/08/27 02:39:53;;;;;;;4.6;3.5;;;;;;;;;;;;;
2021/08/27 02:42:26;;;;;;;4.2;3.5;;;;;;;;;;;;;
2021/08/27 02:44:50;;;;;;;5;3.3;;;;;;;;;;;;;
2021/08/27 02:47:13;;;;;;;4;3.3;;;;;;;;;;;;;
2021/08/27 02:49:38;;;;;;;4.9;3.4;;;;;;;;;;;;;
2021/08/27 02:52:04;;;;;;;4;2.9;;;;;;;;;;;;;
2021/08/27 02:54:29;;;;;;;3.5;3.2;;;;;;;;;;;;;
2021/08/27 02:56:54;;;;;;;4.4;3.4;;;;;;;;;;;;;
2021/08/27 03:04:09;;;;;;;5;3.3;;;;;;;;;;;;;
2021/08/27 03:06:34;;;;;;;4.3;2.8;;;;;;;;;;;;;
2021/08/27 03:09:00;;;;;;;4.5;3.1;;;;;;;;;;;;;
2021/08/27 03:11:25;;;;;;;5.8;3.2;;;;;;;;;;;;;
2021/08/27 03:13:50;;;;;;;4.4;3.3;;;;;;;;;;;;;
2021/08/27 03:16:16;;;;;;;4.7;3.1;;;;;;;;;;;;;
2021/08/27 03:18:41;;;;;;;4.1;3.2;;;;;;;;;;;;;
2021/08/27 03:21:06;;;;;;;4.6;3.6;;;;;;;;;;;;;
2021/08/27 03:23:31;;;;;;;4.7;3.3;;;;;;;;;;;;;
2021/08/27 03:25:56;;;;;;;6;3.4;;;;;;;;;;;;;
2021/08/27 03:28:21;;;;;;;4;3.1;;;;;;;;;;;;;
2021/08/27 03:30:47;;;;;;;4.4;3.2;;;;;;;;;;;;;
2021/08/27 03:33:12;;;;;;;4;3.1;;;;;;;;;;;;;
2021/08/27 03:35:37;;;;;;;5.5;3.3;;;;;;;;;;;;;
2021/08/27 03:38:04;;;;;;;4.7;3.3;;;;;;;;;;;;;
2021/08/27 03:40:27;;;;;;;4.9;3.3;;;;;;;;;;;;;
2021/08/27 03:42:52;;;;;;;4.7;3.4;;;;;;;;;;;;;
2021/08/27 03:45:17;;;;;;;4.4;3.4;;;;;;;;;;;;;
2021/08/27 03:47:43;;;;;;;4.3;3.2;;;;;;;;;;;;;
2021/08/27 03:50:08;;;;;;;4.1;3.2;;;;;;;;;;;;;
2021/08/27 03:52:33;;;;;;;4.4;3.3;;;;;;;;;;;;;
2021/08/27 03:54:58;;;;;;;4;3.4;;;;;;;;;;;;;
2021/08/27 03:57:23;;;;;;;5.2;3.3;;;;;;;;;;;;;
2021/08/27 03:59:48;;;;;;;4.9;3.6;;;;;;;;;;;;;
2021/08/27 04:02:31;;;;;;;4.7;3.3;;;;;;;13.07;94.58691;935.4788;;;;
2021/08/27 04:04:56;;;;;;;5;3.3;;;;;;;13.04;94.55762;935.4078;;;;
2021/08/27 04:07:21;;;;;;;4.3;3.7;;;;;;;13.06;94.24023;935.4373;;;;
2021/08/27 04:09:47;;;;;;;6.4;3.4;;;;;;;13.2;93.42188;935.4473;;;;
2021/08/27 04:12:12;;;;;;;5.5;3.6;;;;;;;13.14;94.46484;935.5552;;;;
2021/08/27 04:14:37;;;;;;;5.2;3.8;;;;;;;13.1;94.65039;935.5754;;;;
2021/08/27 04:17:04;;;;;;;3.9;3.5;;;;;;;13.07;95.16113;935.5323;;;;
2021/08/27 04:19:27;;;;;;;5.1;3.6;;;;;;;13;94.80273;935.502;;;;
2021/08/27 04:21:52;;;;;;;4.8;3.5;;;;;;;12.86;95.37988;935.4626;;;;
2021/08/27 04:24:17;;;;;;;5.7;3.9;;;;;;;12.91;95.89453;935.5344;;;;
2021/08/27 04:26:43;;;;;;;4.8;3.2;;;;;;;12.97;95.74805;935.503;;;;
2021/08/27 04:29:11;;;;;;;4.9;3.4;;;;;;;13.17;94.31152;935.4822;;;;
2021/08/27 04:32:03;;;;;;;4.3;3.6;;;;;;;13.17;94.95508;935.5686;;;;
2021/08/27 04:34:29;;;;;;;4.8;4.1;;;;;;;13.17;95.10254;935.4744;;;;
2021/08/27 04:36:54;;;;;;;5.3;3.5;;;;;;;13.16;94.99512;935.4041;;;;
2021/08/27 04:39:19;;;;;;;6.3;4.1;;;;;;;13.19;95.12891;935.5833;;;;
2021/08/27 04:41:44;;;;;;;7.1;4;;;;;;;13.21;94.4209;935.5536;;;;
2021/08/27 04:44:10;;;;;;;5.2;3.8;;;;;;;13.19;94.50684;935.493;;;;
2021/08/27 04:46:36;;;;;;;4.5;3.4;;;;;;;13.22;93.45801;935.545;;;;
2021/08/27 04:49:01;;;;;;;4.1;3.4;;;;;;;13.19;93.1416;935.5257;;;;
2021/08/27 04:51:26;;;;;;;6;3.1;;;;;;;13.13;93.24512;935.4993;;;;
2021/08/27 04:53:52;;;;;;;4.3;3.5;;;;;;;13.15;93.79883;935.5408;;;;
2021/08/27 04:56:17;;;;;;;5.1;3.4;;;;;;;13.18;93.65723;935.6017;;;;
2021/08/27 04:58:42;;;;;;;5.5;3.5;;;;;;;13.18;93.12891;935.6488;;;;
2021/08/27 05:01:07;;;;;;;4.8;3.5;;;;;;;13.17;93.86133;935.6135;;;;
2021/08/27 05:03:32;;;;;;;4.4;3.2;;;;;;;13.26;93.28418;935.6057;;;;
2021/08/27 05:05:57;;;;;;;7.1;3.9;;;;;;;13.2;93.61719;935.5936;;;;
2021/08/27 05:08:22;;;;;;;5.8;3.5;;;;;;;13.18;93.64551;935.7;;;;
2021/08/27 05:10:47;;;;;;;5.2;3.4;;;;;;;13.19;94.41699;935.7272;;;;
2021/08/27 05:13:12;;;;;;;4.1;3.2;;;;;;;13.19;94.6582;935.6728;;;;
2021/08/27 05:15:37;;;;;;;5.7;4.3;;;;;;;13.25;93.58105;935.7583;;;;
2021/08/27 05:18:34;;;;;;;5.5;4.1;;;;;;;13.21;93.63965;935.628;;;;
2021/08/27 05:21:00;;;;;;;5.7;4.2;;;;;;;13.27;93.18262;935.6998;;;;
2021/08/27 05:23:26;;;;;;;5.7;3.9;;;;;;;13.33;92.89746;935.7347;;;;
2021/08/27 05:25:52;;;;;;;5.5;4;;;;;;;13.31;93.75488;935.782;;;;
2021/08/27 05:28:17;;;;;;;5.8;4.1;;;;;;;13.32;94.11328;935.7236;;;;
2021/08/27 05:30:42;;;;;;;5.6;4.3;;;;;;;13.27;94.58398;935.7239;;;;
2021/08/27 05:33:08;;;;;;;6.4;4;;;;;;;13.28;93.80664;935.6367;;;;
2021/08/27 05:35:34;;;;;;;5.1;3.6;;;;;;;13.23;93.76074;935.7289;;;;
2021/08/27 05:37:59;;;;;;;5.1;3.8;;;;;;;13.24;93.20898;935.6792;;;;
2021/08/27 05:40:25;;;;;;;5.5;3.3;;;;;;;13.25;93.12109;935.6656;;;;
2021/08/27 05:42:50;;;;;;;4.7;3.8;;;;;;;13.3;93.38574;935.6334;;;;
2021/08/27 05:45:18;;;;;;;5.5;4.2;;;;;;;13.46;92.26855;935.5967;;;;
2021/08/27 05:47:42;;;;;;;4.2;3;;;;;;;13.44;92.94336;935.5681;;;;
2021/08/27 05:50:07;;;;;;;4.4;3.3;;;;;;;13.47;92.59082;935.6279;;;;
2021/08/27 05:52:32;;;;;;;4.8;3.3;;;;;;;13.52;92.29395;935.618;;;;
2021/08/27 05:54:57;;;;;;;3.5;3.1;;;;;;;13.57;91.83203;935.6225;;;;
2021/08/27 05:57:22;;;;;;;5;3.7;;;;;;;13.59;92.19238;935.6167;;;;
2021/08/27 05:59:47;;;;;;;6.1;4.9;;;;;;;13.59;93.04297;935.68;;;;
2021/08/27 06:02:12;;;;;;;6.7;4.2;;;;;;;13.68;92.45313;935.7004;;;;
2021/08/27 06:04:37;;;;;;;4.8;3.7;;;;;;;13.64;92.80176;935.6103;;;;
2021/08/27 06:07:02;;;;;;;5.8;4;;;;;;;13.65;92.43359;935.6342;;;;
2021/08/27 06:09:59;;;;;;;5;3.6;;;;;;;13.78;92.13086;935.6461;;;;
2021/08/27 06:12:25;;;;;;;4.2;3.6;;;;;;;13.99;91.40527;935.6552;;;;
2021/08/27 06:14:50;;;;;;;4.2;3.1;;;;;;;14.19;90.36133;935.7156;;;;
2021/08/27 06:17:16;;;;;;;4;3.2;;;;;;;14.39;88.95117;935.6908;;;;
2021/08/27 06:19:41;;;;;;;5.1;3.1;;;;;;;14.46;86.4082;935.7548;;;;
2021/08/27 06:22:07;;;;;;;4.6;3.6;;;;;;;14.37;88.37305;935.8384;;;;
2021/08/27 06:24:32;;;;;;;4.2;3.2;;;;;;;14.58;87.72363;935.8209;;;;
2021/08/27 06:27:03;;;;;;;4.2;3.3;;;;;;;14.81;87.2168;935.8141;;;;
2021/08/27 06:29:24;;;;;;;4.3;3.5;;;;;;;15.04;85.52051;935.7736;;;;
2021/08/27 06:31:50;;;;;;;3.9;3.3;;;;;;;15.21;84.85156;935.7667;;;;
2021/08/27 06:34:15;;;;;;;4.9;3.3;;;;;;;15.43;83.63379;935.7397;;;;
2021/08/27 06:36:40;;;;;;;3.8;2.9;;;;;;;15.73;83.4248;935.7135;;;;
2021/08/27 06:39:05;;;;;;;4.1;3.2;;;;;;;15.21;82.54199;935.7603;;;;
2021/08/27 06:41:30;;;;;;;3.8;3;;;;;;;15.65;83.28418;935.7459;;;;
2021/08/27 06:43:56;;;;;;;4.7;3.4;;;;;;;16.01;81.90527;935.728;;;;
2021/08/27 06:46:21;;;;;;;3.4;2.7;;;;;;;16.49;76.99512;935.8047;;;;
2021/08/27 06:48:47;;;;;;;3.2;2.2;;;;;;;19.04;69.31738;935.8279;;;;
2021/08/27 06:51:13;;;;;;;3.4;2.8;;;;;;;19.21;64.04492;935.8441;;;;
2021/08/27 06:53:41;;;;;;;4.4;3;;;;;;;19.56;62.08984;935.8491;;;;
2021/08/27 06:56:06;;;;;;;3.2;2.5;;;;;;;21.39;60.34668;935.8436;;;;
2021/08/27 06:58:31;;;;;;;4;2.6;;;;;;;21.66;57.54883;935.8433;;;;
2021/08/27 07:00:56;;;;;;;3.8;2.7;;;;;;;20.6;59.53711;935.7838;;;;
2021/08/27 07:03:21;;;;;;;3;2.3;;;;;;;19.34;64.06445;935.7916;;;;
2021/08/27 07:05:46;;;;;;;3.2;2.6;;;;;;;19.3;64.59277;935.8323;;;;
2021/08/27 07:08:13;;;;;;;2.9;2.4;;;;;;;18.78;65.40137;935.8617;;;;
2021/08/27 07:10:38;;;;;;;2.8;2.2;;;;;;;17.65;69.72559;935.9058;;;;
2021/08/27 07:13:04;;;;;;;3.9;2.7;;;;;;;17.68;68.97656;935.808;;;;
2021/08/27 07:15:29;;;;;;;4.6;2.7;;;;;;;17.51;70.77148;935.9189;;;;
2021/08/27 07:17:54;;;;;;;4;2.7;;;;;;;17.4;70.47559;935.8855;;;;
2021/08/27 07:20:19;;;;;;;3.7;2.6;;;;;;;17.06;72.30762;935.8776;;;;
2021/08/27 07:22:44;;;;;;;4.9;3.5;;;;;;;16.63;75.5498;935.9063;;;;
2021/08/27 07:25:09;;;;;;;3.7;2.9;;;;;;;16.94;73.81836;935.8739;;;;
2021/08/27 07:27:34;;;;;;;4.3;2.9;;;;;;;16.95;72.61621;935.9066;;;;
2021/08/27 07:29:59;;;;;;;3.5;2.7;;;;;;;17.15;74.71289;935.8773;;;;
2021/08/27 07:32:38;;;;;;;4.3;2.9;;;;;;;17.31;73.25586;935.9098;;;;
2021/08/27 07:35:04;;;;;;;4.2;2.6;;;;;;;17.71;71.00098;935.8677;;;;
2021/08/27 07:37:29;;;;;;;3.9;2.6;;;;;;;17.88;69.29688;935.8933;;;;
2021/08/27 07:39:54;;;;;;;6.3;3;;;;;;;17.11;72.59473;935.887;;;;
2021/08/27 07:42:19;;;;;;;4.1;2.7;;;;;;;17.21;71.9043;935.9744;;;;
2021/08/27 07:44:45;;;;;;;4.5;2.6;;;;;;;17.01;72.71777;935.9875;;;;
2021/08/27 07:47:10;;;;;;;3.5;2.6;;;;;;;17.12;71.36816;935.9504;;;;
2021/08/27 07:49:35;;;;;;;2.8;2.5;;;;;;;17.24;71.94336;936.0554;;;;
2021/08/27 07:52:03;;;;;;;4;2.5;;;;;;;16.94;72.5332;936.0499;;;;
2021/08/27 07:54:26;;;;;;;4.7;3.2;;;;;;;16.95;73.09082;936.0112;;;;
2021/08/27 07:56:51;;;;;;;3.8;2.5;;;;;;;17.29;70.80273;936.0319;;;;
2021/08/27 07:59:16;;;;;;;4.5;3.1;;;;;;;17.26;71.31055;936.0887;;;;
2021/08/27 08:01:41;;;;;;;4.1;2.8;;;;;;;17.97;68.95215;935.9718;;;;
2021/08/27 08:04:06;;;;;;;3.5;2.8;;;;;;;19.05;66.12891;935.9447;;;;
2021/08/27 08:06:32;;;;;;;2.9;2.3;;;;;;;21.16;58.77051;935.9752;;;;
2021/08/27 08:08:57;;;;;;;3.1;2.4;;;;;;;23.2;52.35547;935.9723;;;;
2021/08/27 08:11:22;;;;;;;3.4;2;;;;;;;24.01;48.81152;935.9819;;;;
2021/08/27 08:13:47;;;;;;;4;2.2;;;;;;;22.7;51.65137;935.9744;;;;
2021/08/27 08:16:13;;;;;;;3.6;2.3;;;;;;;22.69;52.24805;935.9533;;;;
2021/08/27 08:18:43;;;;;;;3.4;2.4;;;;;;;22.89;51.9541;935.9302;;;;
2021/08/27 08:21:03;;;;;;;3.3;2.2;;;;;;;21.68;57.49414;936.0466;;;;
2021/08/27 08:23:28;;;;;;;3.9;2.6;;;;;;;20.33;58.83789;936.04;;;;
2021/08/27 08:25:53;;;;;;;3.7;2.8;;;;;;;20.23;59.63965;936.0701;;;;
2021/08/27 08:28:18;;;;;;;5.1;2.9;;;;;;;19.97;59.39551;936.0119;;;;
2021/08/27 08:30:44;;;;;;;3.2;2.2;;;;;;;19.48;61.05273;936.0611;;;;
2021/08/27 08:33:09;;;;;;;4.2;2.7;;;;;;;18.97;62.64746;936.0248;;;;
2021/08/27 08:35:34;;;;;;;4.3;2.7;;;;;;;18.48;64.57813;936.0524;;;;
2021/08/27 08:37:59;;;;;;;3.6;2.8;;;;;;;17.93;66.98242;936.0378;;;;
2021/08/27 08:40:24;;;;;;;3.9;3.2;;;;;;;17.49;69.01465;936.0787;;;;
2021/08/27 08:42:50;;;;;;;4.7;3.2;;;;;;;17.08;71.54785;936.0613;;;;
2021/08/27 08:45:14;;;;;;;3.6;2.7;;;;;;;16.85;72.72754;936.0734;;;;
2021/08/27 08:47:39;;;;;;;5.1;3;;;;;;;17.27;71.79883;936.1151;;;;
2021/08/27 08:50:04;;;;;;;4.5;3.2;;;;;;;17.53;70.27539;936.073;;;;
2021/08/27 08:52:29;;;;;;;5.6;3.1;;;;;;;17.17;70.82031;936.152;;;;
2021/08/27 08:54:55;;;;;;;4.3;3.4;;;;;;;16.92;72.73926;936.2273;;;;
2021/08/27 08:57:20;;;;;;;4.6;3.3;;;;;;;16.99;72.59863;936.2477;;;;
2021/08/27 08:59:45;;;;;;;5.7;3.6;;;;;;;16.75;73.86719;936.2172;;;;
2021/08/27 09:02:10;;;;;;;6.5;3.4;;;;;;;16.37;75.67969;936.2194;;;;
2021/08/27 09:04:35;;;;;;;5.4;3.4;;;;;;;16.33;75.42773;936.2676;;;;
2021/08/27 09:07:00;;;;;;;4.6;3.5;;;;;;;16.03;76.09473;936.1907;;;;
2021/08/27 09:09:26;;;;;;;4.2;3.5;;;;;;;16;76.63281;936.2012;;;;
2021/08/27 09:11:51;;;;;;;5.4;3.2;;;;;;;16.08;76.90039;936.2028;;;;
2021/08/27 09:14:16;;;;;;;5;3.5;;;;;;;15.63;79.18945;936.2865;;;;
2021/08/27 09:16:41;;;;;;;6.1;3.9;;;;;;;15.55;79.47656;936.348;;;;
2021/08/27 09:19:06;;;;;;;5.3;3.9;;;;;;;15.61;78.44629;936.4028;;;;
2021/08/27 09:21:32;;;;;;;5.5;4;;;;;;;15.42;80.43359;936.4103;;;;
2021/08/27 09:23:56;;;;;;;4.3;3.4;;;;;;;15.33;80.33594;936.4274;;;;
2021/08/27 09:26:22;;;;;;;5;3.2;;;;;;;15.21;80.77539;936.4172;;;;
2021/08/27 09:28:48;;;;;;;4.3;3;;;;;;;14.98;82.95996;936.4507;;;;
2021/08/27 09:31:13;;;;;;;4;3.3;;;;;;;15.15;82.34473;936.4387;;;;
2021/08/27 09:33:38;;;;;;;4.1;3.1;;;;;;;14.97;83.0957;936.4139;;;;
2021/08/27 09:36:03;;;;;;;9.4;4.4;;;;;;;14.6;84.87109;936.5516;;;;
2021/08/27 09:38:28;;;;;;;5.4;3.5;;;;;;;14.86;83.95117;936.496;;;;
2021/08/27 09:40:53;;;;;;;4.1;3;;;;;;;14.79;84.55957;936.5229;;;;
2021/08/27 09:43:18;;;;;;;3.8;3.2;;;;;;;14.77;85.92871;936.5784;;;;
2021/08/27 09:45:44;;;;;;;4.1;3.3;;;;;;;14.72;85.76953;936.6189;;;;
2021/08/27 09:48:09;;;;;;;4.5;3.3;;;;;;;14.78;85.25195;936.6656;;;;
2021/08/27 09:50:34;;;;;;;4.4;3.2;;;;;;;14.73;85.05664;936.7014;;;;
2021/08/27 09:53:45;;;;;;;3.8;3.1;;;;;;;14.72;85.14746;936.6942;;;;
2021/08/27 09:56:11;;;;;;;4.1;3.2;;;;;;;14.67;85.96484;936.5785;;;;
2021/08/27 09:58:36;;;;;;;5.9;3.6;;;;;;;14.22;87.87109;936.5981;;;;
2021/08/27 10:01:01;;;;;;;5.6;3.6;;;;;;;14.39;87.6416;936.5984;;;;
2021/08/27 10:03:26;;;;;;;4.9;3.6;;;;;;;14.56;87.65039;936.5198;;;;
2021/08/27 10:05:53;;;;;;;3.8;3;;;;;;;14.77;86.67773;936.5183;;;;
2021/08/27 10:08:17;;;;;;;3.9;3.3;;;;;;;;;;;;;
2021/08/27 10:10:59;;;;;;;4.6;3.2;;;;;;;;;;;;;
2021/08/27 10:13:24;;;;;;;3.8;3.1;;;;;;;;;;;;;
2021/08/27 10:15:49;;;;;;;5.4;3.4;;;;;;;;;;;;;
2021/08/27 10:18:14;;;;;;;4.6;3.3;;;;;;;;;;;;;
2021/08/27 10:20:40;;;;;;;3.7;2.9;;;;;;;;;;;;;
2021/08/27 10:23:04;;;;;;;4.1;2.9;;;;;;;;;;;;;
2021/08/27 10:25:29;;;;;;;7.1;3.9;;;;;;;;;;;;;
2021/08/27 10:27:55;;;;;;;5.5;4;;;;;;;;;;;;;
2021/08/27 10:30:20;;;;;;;4;3.5;;;;;;;;;;;;;
2021/08/27 10:32:45;;;;;;;4.7;3.5;;;;;;;;;;;;;
2021/08/27 10:35:10;;;;;;;4.7;3;;;;;;;;;;;;;
2021/08/27 10:37:35;;;;;;;3.9;3.2;;;;;;;;;;;;;
2021/08/27 10:40:00;;;;;;;4.4;3;;;;;;;;;;;;;
2021/08/27 10:42:25;;;;;;;4.7;2.6;;;;;;;;;;;;;
2021/08/27 10:44:51;;;;;;;3.1;2;;;;;;;;;;;;;
2021/08/27 10:47:16;;;;;;;2.5;1.5;;;;;;;;;;;;;
2021/08/27 10:49:41;;;;;;;1.5;1.4;;;;;;;;;;;;;
2021/08/27 10:52:06;;;;;;;2;1.6;;;;;;;;;;;;;
2021/08/27 10:54:31;;;;;;;3;1.8;;;;;;;;;;;;;
2021/08/27 10:56:57;;;;;;;2.5;1.7;;;;;;;;;;;;;
2021/08/27 10:59:22;;;;;;;2.1;1.8;;;;;;;;;;;;;
2021/08/27 11:01:47;;;;;;;3;1.9;;;;;;;;;;;;;
2021/08/27 11:04:13;;;;;;;2.4;1.9;;;;;;;;;;;;;
2021/08/27 11:06:37;;;;;;;2.9;2.1;;;;;;;;;;;;;
2021/08/27 11:09:02;;;;;;;2.9;2.3;;;;;;;;;;;;;
2021/08/27 11:11:28;;;;;;;2.5;2.3;;;;;;;;;;;;;
2021/08/27 11:14:03;;;;;;;3;2;;;;;;;;;;;;;
2021/08/27 11:16:28;;;;;;;2.1;1.9;;;;;;;;;;;;;
2021/08/27 11:18:53;;;;;;;2.4;2;;;;;;;;;;;;;
2021/08/27 11:21:18;;;;;;;1.7;1.6;;;;;;;;;;;;;
2021/08/27 11:23:44;;;;;;;3.1;1.7;;;;;;;;;;;;;
2021/08/27 11:26:08;;;;;;;1.5;1.4;;;;;;;;;;;;;
2021/08/27 11:28:35;;;;;;;1.5;1.4;;;;;;;;;;;;;
2021/08/27 11:30:58;;;;;;;2.3;1.6;;;;;;;;;;;;;
2021/08/27 11:33:24;;;;;;;1.4;1.3;;;;;;;;;;;;;
2021/08/27 11:35:49;;;;;;;1.8;1.5;;;;;;;;;;;;;
2021/08/27 11:38:44;;;;;;;2.6;2;;;;;;;;;;;;;
2021/08/27 11:40:54;;;;;;;1.9;1.3;;;;;;;;;;;;;
2021/08/27 11:43:19;;;;;;;2;1.3;;;;;;;;;;;;;
2021/08/27 11:45:45;;;;;;;2.3;1.8;;;;;;;;;;;;;
2021/08/27 11:48:11;;;;;;;1.4;1.3;;;;;;;;;;;;;
2021/08/27 11:50:36;;;;;;;2.2;1.6;;;;;;;;;;;;;
2021/08/27 11:53:00;;;;;;;3.7;2.6;;;;;;;;;;;;;
2021/08/27 11:55:25;;;;;;;1.9;1.4;;;;;;;;;;;;;
2021/08/27 11:57:51;;;;;;;1.9;1.3;;;;;;;;;;;;;
2021/08/27 12:00:15;;;;;;;2;1.6;;;;;;;;;;;;;
2021/08/27 12:02:40;;;;;;;1.5;1.2;;;;;;;;;;;;;
2021/08/27 12:05:06;;;;;;;1.7;1.4;;;;;;;;;;;;;
2021/08/27 12:07:34;;;;;;;1.8;1.6;;;;;;;;;;;;;
2021/08/27 12:09:56;;;;;;;2.6;1.6;;;;;;;;;;;;;
2021/08/27 12:12:21;;;;;;;1.4;1.2;;;;;;;;;;;;;
2021/08/27 12:14:47;;;;;;;1.3;1.2;;;;;;;;;;;;;
2021/08/27 12:17:12;;;;;;;1.2;1.1;;;;;;;;;;;;;
2021/08/27 12:19:37;;;;;;;1.7;1.3;;;;;;;;;;;;;
2021/08/27 12:22:03;;;;;;;1.3;1.2;;;;;;;;;;;;;
2021/08/27 12:24:27;;;;;;;1.4;1.1;;;;;;;;;;;;;
2021/08/27 12:26:52;;;;;;;1.2;1.1;;;;;;;;;;;;;
2021/08/27 12:29:18;;;;;;;1.4;1.1;;;;;;;;;;;;;
2021/08/27 12:31:43;;;;;;;0.9;0.8;;;;;;;;;;;;;
2021/08/27 12:34:08;;;;;;;1.2;1;;;;;;;;;;;;;
2021/08/27 12:36:33;;;;;;;1;0.9;;;;;;;;;;;;;
2021/08/27 12:38:58;;;;;;;0.7;0.7;;;;;;;;;;;;;
2021/08/27 12:41:24;;;;;;;1.8;1.1;;;;;;;;;;;;;
2021/08/27 12:43:50;;;;;;;0.9;0.9;;;;;;;;;;;;;
2021/08/27 12:46:13;;;;;;;1;0.9;;;;;;;;;;;;;
2021/08/27 12:48:39;;;;;;;1.5;1.1;;;;;;;;;;;;;
2021/08/27 12:51:04;;;;;;;1.6;1;;;;;;;;;;;;;
2021/08/27 12:53:29;;;;;;;1;0.9;;;;;;;;;;;;;
2021/08/27 12:55:54;;;;;;;2.2;1;;;;;;;;;;;;;
2021/08/27 12:58:22;;;;;;;1.1;1;;;;;;;;;;;;;
2021/08/27 13:00:47;;;;;;;1.4;1;;;;;;;;;;;;;
2021/08/27 13:03:12;;;;;;;1.4;1.2;;;;;;;;;;;;;
2021/08/27 13:05:38;;;;;;;1.7;1.6;;;;;;;;;;;;;
2021/08/27 13:08:02;;;;;;;8.3;5.9;;;;;;;;;;;;;
2021/08/27 13:10:28;;;;;;;1.4;1.1;;;;;;;;;;;;;
2021/08/27 13:12:52;;;;;;;1.4;1.1;;;;;;;;;;;;;
2021/08/27 13:15:18;;;;;;;1.6;1.2;;;;;;;;;;;;;
2021/08/27 13:17:42;;;;;;;1.6;1.5;;;;;;;;;;;;;
2021/08/27 13:20:08;;;;;;;1.9;1.4;;;;;;;;;;;;;
2021/08/27 13:22:33;;;;;;;1.1;1;;;;;;;;;;;;;
2021/08/27 13:25:04;;;;;;;2.2;1.7;;;;;;;;;;;;;
2021/08/27 13:27:27;;;;;;;1.3;1.2;;;;;;;;;;;;;
2021/08/27 13:29:52;;;;;;;2.3;1.2;;;;;;;;;;;;;
2021/08/27 13:32:17;;;;;;;1.7;1.2;;;;;;;;;;;;;
2021/08/27 13:34:42;;;;;;;1.2;1.1;;;;;;;;;;;;;
2021/08/27 13:37:07;;;;;;;1.7;1.4;;;;;;;;;;;;;
2021/08/27 13:39:32;;;;;;;2.2;1.2;;;;;;;;;;;;;
2021/08/27 13:41:57;;;;;;;2.4;1.5;;;;;;;;;;;;;
2021/08/27 13:44:22;;;;;;;2;1.4;;;;;;;;;;;;;
2021/08/27 13:47:06;;;;;;;1.8;1.4;;;;;;;;;;;;;
2021/08/27 13:49:13;;;;;;;1.5;1.4;;;;;;;;;;;;;
2021/08/27 13:51:38;;;;;;;2.3;1.5;;;;;;;;;;;;;
2021/08/27 13:54:05;;;;;;;1.9;1.5;;;;;;;;;;;;;
2021/08/27 13:56:28;;;;;;;1.6;1.5;;;;;;;;;;;;;
2021/08/27 13:58:55;;;;;;;1.6;1.5;;;;;;;;;;;;;
2021/08/27 14:01:18;;;;;;;2;1.5;;;;;;;;;;;;;
2021/08/27 14:03:44;;;;;;;2.3;1.4;;;;;;;;;;;;;
2021/08/27 14:06:09;;;;;;;2.5;2;;;;;;;;;;;;;
2021/08/27 14:08:34;;;;;;;1.7;1.6;;;;;;;;;;;;;
2021/08/27 14:10:59;;;;;;;1.4;1.3;;;;;;;;;;;;;
2021/08/27 14:13:26;;;;;;;1.4;1.3;;;;;;;;;;;;;
2021/08/27 14:15:50;;;;;;;1.4;1.3;;;;;;;;;;;;;
2021/08/27 14:18:15;;;;;;;2;1.4;;;;;;;;;;;;;
2021/08/27 14:20:45;;;;;;;2.1;1.4;;;;;;;;;;;;;
2021/08/27 14:23:05;;;;;;;2;1.5;;;;;;;;;;;;;
2021/08/27 14:25:30;;;;;;;1.9;1.4;;;;;;;;;;;;;
2021/08/27 14:27:56;;;;;;;1.9;1.3;;;;;;;;;;;;;
2021/08/27 14:30:21;;;;;;;1.6;1.5;;;;;;;;;;;;;
2021/08/27 14:32:46;;;;;;;2;1.8;;;;;;;;;;;;;
2021/08/27 14:35:11;;;;;;;2.3;1.9;;;;;;;;;;;;;
2021/08/27 14:37:37;;;;;;;1.7;1.4;;;;;;;;;;;;;
2021/08/27 14:40:01;;;;;;;2.4;1.7;;;;;;;;;;;;;
2021/08/27 14:42:26;;;;;;;19.4;12.9;;;;;;;;;;;;;
2021/08/27 14:44:51;;;;;;;20.8;14.8;;;;;;;;;;;;;
2021/08/27 14:47:16;;;;;;;10.3;7.9;;;;;;;;;;;;;
2021/08/27 14:49:41;;;;;;;5.2;4.2;;;;;;;;;;;;;
2021/08/27 14:52:07;;;;;;;5.4;4.4;;;;;;;;;;;;;
2021/08/27 14:54:32;;;;;;;3.9;3.5;;;;;;;;;;;;;
2021/08/27 14:56:57;;;;;;;8;7.3;;;;;;;;;;;;;
2021/08/27 14:59:23;;;;;;;4.1;3.2;;;;;;;;;;;;;
2021/08/27 15:01:48;;;;;;;2.6;1.8;;;;;;;;;;;;;
2021/08/27 15:04:13;;;;;;;4.6;4.2;;;;;;;;;;;;;
2021/08/27 15:06:38;;;;;;;10.3;8.7;;;;;;;;;;;;;
2021/08/27 15:09:03;;;;;;;4.6;3.6;;;;;;;;;;;;;
2021/08/27 15:11:29;;;;;;;3;2.6;;;;;;;;;;;;;
2021/08/27 15:13:54;;;;;;;2.1;1.8;;;;;;;;;;;;;
2021/08/27 15:16:19;;;;;;;3;1.8;;;;;;;;;;;;;
2021/08/27 15:18:44;;;;;;;3.7;2.3;;;;;;;;;;;;;
2021/08/27 15:21:09;;;;;;;6.5;3.3;;;;;;;;;;;;;
2021/08/27 15:23:34;;;;;;;1.5;1.4;;;;;;;;;;;;;
2021/08/27 15:25:59;;;;;;;1.8;1.3;;;;;;;;;;;;;
2021/08/27 15:28:25;;;;;;;1.7;1.5;;;;;;;;;;;;;
2021/08/27 15:30:50;;;;;;;1.5;1.3;;;;;;;;;;;;;
2021/08/27 15:33:15;;;;;;;3.2;1.5;;;;;;;;;;;;;
2021/08/27 15:35:41;;;;;;;1.6;1.3;;;;;;;;;;;;;
2021/08/27 15:38:06;;;;;;;1.4;1.3;;;;;;;;;;;;;
2021/08/27 15:40:31;;;;;;;1.5;1.4;;;;;;;;;;;;;
2021/08/27 15:42:56;;;;;;;3.5;2.1;;;;;;;;;;;;;
2021/08/27 15:45:21;;;;;;;1.7;1.6;;;;;;;;;;;;;
2021/08/27 15:47:46;;;;;;;2.9;1.8;;;;;;;;;;;;;
2021/08/27 15:50:12;;;;;;;3;1.9;;;;;;;;;;;;;
2021/08/27 15:52:37;;;;;;;1.9;1.7;;;;;;;;;;;;;
2021/08/27 15:55:02;;;;;;;2.2;2;;;;;;;;;;;;;
2021/08/27 15:57:27;;;;;;;3.5;2.1;;;;;;;;;;;;;
2021/08/27 15:59:52;;;;;;;2.4;2;;;;;;;;;;;;;
2021/08/27 16:02:17;;;;;;;2.6;2;;;;;;;;;;;;;
2021/08/27 16:04:45;;;;;;;2.7;1.9;;;;;;;;;;;;;
2021/08/27 16:07:25;;;;;;;2.1;1.9;;;;;;;;;;;;;
2021/08/27 16:09:50;;;;;;;4.1;2.7;;;;;;;;;;;;;
2021/08/27 16:12:15;;;;;;;2.4;2;;;;;;;;;;;;;
2021/08/27 16:14:46;;;;;;;2.1;1.8;;;;;;;;;;;;;
2021/08/27 16:17:05;;;;;;;2.1;1.8;;;;;;;;;;;;;
2021/08/27 16:19:31;;;;;;;2.1;1.9;;;;;;;;;;;;;
2021/08/27 16:21:56;;;;;;;3.7;2.9;;;;;;;;;;;;;
2021/08/27 16:24:21;;;;;;;3.7;2.2;;;;;;;;;;;;;
2021/08/27 16:26:46;;;;;;;2.4;2.2;;;;;;;;;;;;;
2021/08/27 16:29:13;;;;;;;3;2.4;;;;;;;;;;;;;
2021/08/27 16:31:38;;;;;;;4.6;2.5;;;;;;;;;;;;;
2021/08/27 16:34:03;;;;;;;3.4;2.9;;;;;;;;;;;;;
2021/08/27 16:36:29;;;;;;;4.2;3.1;;;;;;;;;;;;;
2021/08/27 16:38:53;;;;;;;2.6;2.3;;;;;;;;;;;;;
2021/08/27 16:41:18;;;;;;;3;2.7;;;;;;;;;;;;;
2021/08/27 16:43:43;;;;;;;3.7;2.6;;;;;;;;;;;;;
2021/08/27 16:46:08;;;;;;;2.3;2.1;;;;;;;;;;;;;
2021/08/27 16:48:34;;;;;;;2.4;1.9;;;;;;;;;;;;;
2021/08/27 16:50:59;;;;;;;2.6;1.9;;;;;;;;;;;;;
2021/08/27 16:53:24;;;;;;;2.9;2;;;;;;;;;;;;;
2021/08/27 16:55:54;;;;;;;2.6;2;;;;;;;;;;;;;
2021/08/27 16:58:19;;;;;;;2.8;1.8;;;;;;;;;;;;;
2021/08/27 17:00:44;;;;;;;2.8;2.5;;;;;;;;;;;;;
2021/08/27 17:03:10;;;;;;;2.2;1.9;;;;;;;;;;;;;
2021/08/27 17:05:35;;;;;;;2.4;2;;;;;;;;;;;;;
2021/08/27 17:08:00;;;;;;;3.4;3;;;;;;;;;;;;;
2021/08/27 17:10:25;;;;;;;3.8;3.1;;;;;;;;;;;;;
2021/08/27 17:12:51;;;;;;;5.4;3.8;;;;;;;;;;;;;
2021/08/27 17:15:16;;;;;;;11.6;7.8;;;;;;;;;;;;;
2021/08/27 17:17:41;;;;;;;11.4;8.1;;;;;;;;;;;;;
2021/08/27 17:20:06;;;;;;;6.1;5.1;;;;;;;;;;;;;
2021/08/27 17:22:31;;;;;;;4.4;3.7;;;;;;;;;;;;;
2021/08/27 17:24:56;;;;;;;2.9;2.5;;;;;;;;;;;;;
2021/08/27 17:27:22;;;;;;;2.4;2;;;;;;;;;;;;;
2021/08/27 17:29:47;;;;;;;4.9;3.9;;;;;;;;;;;;;
2021/08/27 17:32:12;;;;;;;2.4;2.2;;;;;;;;;;;;;
2021/08/27 17:34:37;;;;;;;4.4;2.4;;;;;;;;;;;;;
2021/08/27 17:37:02;;;;;;;4;2.8;;;;;;;;;;;;;
2021/08/27 17:39:27;;;;;;;4.5;2.6;;;;;;;;;;;;;
2021/08/27 17:41:53;;;;;;;3.3;2.4;;;;;;;;;;;;;
2021/08/27 17:44:21;;;;;;;3;1.9;;;;;;;;;;;;;
2021/08/27 17:46:43;;;;;;;2.3;1.8;;;;;;;;;;;;;
2021/08/27 17:49:08;;;;;;;2;1.8;;;;;;;;;;;;;
2021/08/27 17:51:33;;;;;;;2.3;1.9;;;;;;;;;;;;;
2021/08/27 17:53:58;;;;;;;3.9;2.1;;;;;;;;;;;;;
2021/08/27 17:56:23;;;;;;;3.3;2.6;;;;;;;;;;;;;
2021/08/27 17:58:48;;;;;;;2.7;2.2;;;;;;;;;;;;;
2021/08/27 18:01:13;;;;;;;4.1;2.6;;;;;;;;;;;;;